Huddy, KY (41535)

6:46 AM EST on December 28, 2014 (GMT -0500)
West Williamson, WV | Change Station
CLOSE
Current Station
Personal Weather Station
Location: Williamson, WV
Elevation: 682 ft
Nearby Weather Stations

Elev 682 ft 37.68 °N, 82.29 °W | Updated 40 seconds ago

Rain
Rain
47.8 °F
Feels Like 48 °F
N
0.0
Wind Variable Wind from ESE
Gusts 0.0 mph

Today
High -- | Low -- °F
--% Chance of Precip.
Yesterday
High -- | Low -- °F
Precip. -- in
7:42 AM 5:18 PM
Waxing Crescent, 47% visible
Pressure 30.05 in
Visibility 5.0 miles
Clouds Overcast 200 ft
Windchill 48 °F
Dew Point 48 °F
Humidity 99%
Rainfall 0.05 in
Snow Depth Not available.
UV 0 out of 12
Pollen .10 out of 12
Air Quality Not available.
Flu Activity Not available.
METAR KSJS 281135Z AUTO 00000KT 5SM RA OVC002 08/08 A3005 RMK AO2 T00770076

More Conditions Fewer Conditions

Pressure 30.05 in
Visibility 5.0 miles
Clouds Overcast 200 ft
Windchill 48 °F
Dew Point 48 °F
Humidity 99%
Rainfall 0.05 in
Snow Depth Not available.
UV 0 out of 12
Pollen .10 out of 12
Air Quality Not available.
Flu Activity Not available.
METAR KSJS 281135Z AUTO 00000KT 5SM RA OVC002 08/08 A3005 RMK AO2 T00770076

More Conditions Fewer Conditions

10-Day Weather Forecast

Almanac

Astronomy

Dec. 28, 2014 Rise Set
Actual Time
Civil Twilight
Nautical Twilight
Astronomical Twilight
Moon
Length of Visible Light
Length of Day
Tomorrow will be .
, % of the Moon is Illuminated

Today's Extremes

State Highs State Lows

Community

WunderPhotos

Upload Photos

1,781,232 photos uploaded!

WunderBlogs® & News

Nearby

Air Quality

  Air Quality AQ Index Pollutant
Not available.

Snow Depth

Station Depth Elevation

Earthquake Activity

City Distance Mag. Time & Date
Minimum magnitude displayed is 2.5.

Coastal Water Temperatures

Place Temperature

Nearby Weather Stations